Weather History for Tullahoma, TN

Change the Weather History Date:

Monday, February 18, 2013

  Actual Average Record
Temperature  
Mean Temperature 44 °F -  
Max Temperature 59 °F 51 °F 64 °F (2014)
Min Temperature 30 °F 32 °F 24 °F (2014)
Degree Days  
Heating Degree Days 20    
Moisture  
Dew Point 26 °F    
Average Humidity 45    
Maximum Humidity 87    
Minimum Humidity 31    
Precipitation  
Precipitation 0.00 in - - ()
Sea Level Pressure  
Sea Level Pressure 30.10 in    
Wind  
Wind Speed 10 mph (South)    
Max Wind Speed 23 mph    
Max Gust Speed 37 mph    
Visibility 10 miles    
Events      
Averages and records for this station are not official NWS values.
T = Trace of Precipitation, MM = Missing Value Source: NWS Daily Summary

Daily Weather History Graph

Daily Weather History Graph

Search for Another Location

Airport:

Trip Planner

Search our weather history database for the weather conditions in past years. The results will help you decide how hot, cold, wet, or windy it might be!

Date:

Astronomy

Feb. 18, 2013 Rise Set
Actual Time 6:27 AM CST 5:30 PM CST
Civil Twilight 6:01 AM CST 5:56 PM CST
Nautical Twilight 5:32 AM CST 6:26 PM CST
Astronomical Twilight 5:02 AM CST 6:55 PM CST
Moon 11:21 AM CST (2/18) 1:01 AM CST (2/18)
Length of Visible Light 11h 54m
Length of Day
11h 02m
First Quarter, 58% of the Moon is Illuminated
Feb 18
First Quarter
Feb 25
Full
Mar 4
Last Quarter
Mar 11
New
Mar 19
First Quarter

Hourly Weather History & Observations

Time (CST) Temp. Windchill Dew Point Humidity Pressure Visibility Wind Dir Wind Speed Gust Speed Precip Events Conditions
12:15 AM 33.8 °F 28.6 °F 15.8 °F 48% 30.19 in 10.0 mi SSE 5.8 mph - N/A   Clear
12:35 AM 33.8 °F 28.6 °F 17.6 °F 52% 30.20 in 10.0 mi SE 5.8 mph - N/A   Clear
12:55 AM 33.8 °F 30.8 °F 15.8 °F 48% 30.20 in 10.0 mi SE 3.5 mph - N/A   Clear
1:15 AM 33.8 °F 30.8 °F 17.6 °F 52% 30.19 in 10.0 mi SE 3.5 mph - N/A   Clear
1:35 AM 33.8 °F 29.6 °F 17.6 °F 52% 30.19 in 10.0 mi SE 4.6 mph - N/A   Clear
1:55 AM 33.8 °F 30.8 °F 17.6 °F 52% 30.18 in 10.0 mi SE 3.5 mph - N/A   Clear
2:15 AM 33.8 °F 29.6 °F 17.6 °F 52% 30.18 in 10.0 mi SE 4.6 mph - N/A   Clear
2:35 AM 33.8 °F 28.6 °F 15.8 °F 48% 30.18 in 10.0 mi SE 5.8 mph - N/A   Clear
3:15 AM 33.8 °F - 17.6 °F 52% 30.18 in 10.0 mi Calm Calm - N/A   Clear
3:35 AM 30.2 °F - 17.6 °F 60% 30.18 in 10.0 mi Calm Calm - N/A   Clear
3:55 AM 32.0 °F 28.7 °F 17.6 °F 55% 30.18 in 10.0 mi SSE 3.5 mph - N/A   Clear
4:15 AM 33.8 °F - 17.6 °F 52% 30.19 in 10.0 mi Calm Calm - N/A   Clear
4:35 AM 33.8 °F 30.8 °F 17.6 °F 52% 30.20 in 10.0 mi SSE 3.5 mph - N/A   Clear
4:55 AM 35.6 °F 30.7 °F 17.6 °F 48% 30.20 in 10.0 mi SSE 5.8 mph - N/A   Clear
5:15 AM 35.6 °F 29.9 °F 19.4 °F 52% 30.20 in 10.0 mi South 6.9 mph - N/A   Clear
5:35 AM 35.6 °F 28.0 °F 19.4 °F 52% 30.20 in 10.0 mi South 10.4 mph - N/A   Clear
6:15 AM 35.6 °F 29.9 °F 17.6 °F 48% 30.20 in 10.0 mi SSE 6.9 mph - N/A   Clear
6:35 AM 37.4 °F 31.4 °F 19.4 °F 48% 30.21 in 10.0 mi SSE 8.1 mph - N/A   Clear
6:55 AM 37.4 °F 33.8 °F 19.4 °F 48% 30.22 in 10.0 mi Variable 4.6 mph - N/A   Clear
7:15 AM 37.4 °F 32.1 °F 19.4 °F 48% 30.22 in 10.0 mi SE 6.9 mph - N/A   Clear
7:35 AM 39.2 °F 35.0 °F 21.2 °F 49% 30.22 in 10.0 mi SE 5.8 mph - N/A   Clear
7:55 AM 39.2 °F 35.9 °F 21.2 °F 49% 30.23 in 10.0 mi SSE 4.6 mph - N/A   Clear
8:15 AM 42.8 °F 36.2 °F 24.8 °F 49% 30.23 in 10.0 mi South 12.7 mph - N/A   Clear
8:35 AM 44.6 °F 38.4 °F 26.6 °F 49% 30.23 in 10.0 mi South 12.7 mph - N/A   Clear
8:55 AM 46.4 °F 40.4 °F 26.6 °F 46% 30.23 in 10.0 mi SSW 13.8 mph - N/A   Clear
9:15 AM 48.2 °F - 28.4 °F 46% 30.23 in 10.0 mi SSW 13.8 mph - N/A   Clear
9:35 AM 48.2 °F - 28.4 °F 46% 30.23 in 10.0 mi SSW 13.8 mph - N/A   Clear
9:55 AM 50.0 °F - 28.4 °F 43% 30.22 in 10.0 mi South 11.5 mph 27.6 mph N/A   Clear
10:15 AM 48.2 °F - 28.4 °F 46% 30.21 in 10.0 mi South 15.0 mph - N/A   Clear
10:35 AM 51.8 °F - 28.4 °F 41% 30.21 in 10.0 mi South 13.8 mph - N/A   Clear
10:55 AM 51.8 °F - 28.4 °F 41% 30.20 in 10.0 mi South 17.3 mph - N/A   Clear
11:15 AM 51.8 °F - 28.4 °F 41% 30.19 in 10.0 mi South 15.0 mph - N/A   Clear
11:35 AM 51.8 °F - 28.4 °F 41% 30.18 in 10.0 mi South 13.8 mph - N/A   Clear
11:55 AM 53.6 °F - 30.2 °F 41% 30.16 in 10.0 mi SSW 12.7 mph - N/A   Clear
12:15 PM 55.4 °F - 30.2 °F 38% 30.15 in 10.0 mi SSW 13.8 mph - N/A   Clear
12:35 PM 55.4 °F - 30.2 °F 38% 30.13 in 10.0 mi South 19.6 mph - N/A   Clear
12:55 PM 55.4 °F - 30.2 °F 38% 30.12 in 10.0 mi SSW 12.7 mph - N/A   Clear
1:15 PM 57.2 °F - 30.2 °F 36% 30.11 in 10.0 mi SSW 15.0 mph - N/A   Clear
1:35 PM 57.2 °F - 30.2 °F 36% 30.09 in 10.0 mi South 16.1 mph - N/A   Clear
1:55 PM 59.0 °F - 28.4 °F 31% 30.07 in 10.0 mi SSW 19.6 mph 26.5 mph N/A   Clear
2:15 PM 59.0 °F - 28.4 °F 31% 30.06 in 10.0 mi SSE 18.4 mph - N/A   Clear
2:35 PM 59.0 °F - 28.4 °F 31% 30.05 in 10.0 mi South 20.7 mph 32.2 mph N/A   Clear
2:55 PM 57.2 °F - 28.4 °F 33% 30.05 in 10.0 mi South 18.4 mph - N/A   Clear
3:15 PM 57.2 °F - 28.4 °F 33% 30.04 in 10.0 mi South 23.0 mph 28.8 mph N/A   Clear
3:35 PM 57.2 °F - 30.2 °F 36% 30.04 in 10.0 mi South 13.8 mph 29.9 mph N/A   Clear
3:55 PM 57.2 °F - 28.4 °F 33% 30.02 in 10.0 mi South 18.4 mph - N/A   Partly Cloudy
4:15 PM 57.2 °F - 30.2 °F 36% 30.01 in 10.0 mi South 15.0 mph - N/A   Partly Cloudy
4:35 PM 55.4 °F - 30.2 °F 38% 30.01 in 10.0 mi South 19.6 mph - N/A   Clear
4:55 PM 53.6 °F - 30.2 °F 41% 30.01 in 10.0 mi South 15.0 mph - N/A   Mostly Cloudy
5:15 PM 55.4 °F - 28.4 °F 36% 30.00 in 10.0 mi SSE 16.1 mph - N/A   Overcast
5:35 PM 55.4 °F - 28.4 °F 36% 29.99 in 10.0 mi SSE 18.4 mph - N/A   Overcast
5:55 PM 55.4 °F - 28.4 °F 36% 29.99 in 10.0 mi SSE 13.8 mph 24.2 mph N/A   Overcast
6:15 PM 55.4 °F - 28.4 °F 36% 29.99 in 10.0 mi South 15.0 mph - N/A   Overcast
6:35 PM 53.6 °F - 28.4 °F 38% 29.97 in 10.0 mi South 16.1 mph - N/A   Mostly Cloudy
6:55 PM 53.6 °F - 26.6 °F 35% 29.95 in 10.0 mi SSE 20.7 mph 29.9 mph N/A   Scattered Clouds
7:15 PM 53.6 °F - 26.6 °F 35% 29.96 in 10.0 mi South 15.0 mph - N/A   Mostly Cloudy
7:35 PM 53.6 °F - 26.6 °F 35% 29.95 in 10.0 mi South 21.9 mph 32.2 mph N/A   Overcast
7:55 PM 53.6 °F - 26.6 °F 35% 29.96 in 10.0 mi South 19.6 mph - N/A   Overcast
8:15 PM 53.6 °F - 26.6 °F 35% 29.94 in 10.0 mi SSE 20.7 mph - N/A   Overcast
8:35 PM 53.6 °F - 26.6 °F 35% 29.92 in 10.0 mi South 20.7 mph 32.2 mph N/A   Overcast
8:55 PM 53.6 °F - 26.6 °F 35% 29.93 in 10.0 mi South 18.4 mph 36.8 mph N/A   Mostly Cloudy
9:15 PM 53.6 °F - 26.6 °F 35% 29.94 in 10.0 mi South 15.0 mph - N/A   Mostly Cloudy
9:35 PM 51.8 °F - 26.6 °F 38% 29.93 in 10.0 mi South 23.0 mph 32.2 mph N/A   Overcast
9:55 PM 51.8 °F - 28.4 °F 41% 29.92 in 10.0 mi South 18.4 mph 31.1 mph N/A   Overcast
10:15 PM 48.2 °F - 35.6 °F 62% 29.93 in 7.0 mi South 12.7 mph - N/A   Overcast
10:35 PM 46.4 °F 41.5 °F 35.6 °F 66% 29.92 in 5.0 mi South 10.4 mph - N/A   Overcast
10:55 PM 44.6 °F 38.4 °F 37.4 °F 76% 29.93 in 5.0 mi South 12.7 mph - N/A   Overcast
11:15 PM 44.6 °F 39.2 °F 37.4 °F 76% 29.92 in 6.0 mi South 10.4 mph - N/A   Overcast
11:35 PM 44.6 °F 38.4 °F 37.4 °F 76% 29.95 in 8.0 mi SSW 12.7 mph - N/A   Overcast
11:55 PM 42.8 °F 35.8 °F 39.2 °F 87% 29.94 in 7.0 mi South 13.8 mph - N/A   Overcast